Time,TemperatureF,DewpointF,PressureIn,WindDirection,WindDirectionDegrees,WindSpeedMPH,WindSpeedGustMPH,Humidity,HourlyPrecipIn,Conditions,Clouds,dailyrainin,SoftwareType,DateUTC
2013-03-24 00:00:00,54.7,16.4,30.00,NW,315,2.0,2.6,21,0.00,,,0.00,tws,2013-03-24 07:00:00,
2013-03-24 00:10:00,54.3,17.3,30.00,WNW,292,2.2,2.9,23,0.00,,,0.00,tws,2013-03-24 07:10:00,
2013-03-24 00:20:00,53.8,16.7,30.01,West,270,2.4,3.2,22,0.00,,,0.00,tws,2013-03-24 07:20:00,
2013-03-24 00:30:00,53.4,16.2,30.00,SW,225,2.0,2.7,22,0.00,,,0.00,tws,2013-03-24 07:30:00,
2013-03-24 00:40:00,53.0,15.8,30.00,NW,315,2.5,3.4,22,0.00,,,0.00,tws,2013-03-24 07:40:00,
2013-03-24 00:50:00,52.6,15.0,30.01,WNW,292,1.4,2.4,22,0.00,,,0.00,tws,2013-03-24 07:50:00,
2013-03-24 01:00:00,52.4,15.4,30.01,WNW,292,0.0,0.0,22,0.00,,,0.00,tws,2013-03-24 08:00:00,
2013-03-24 01:10:00,52.1,15.9,30.01,NW,315,0.0,0.0,23,0.00,,,0.00,tws,2013-03-24 08:10:00,
2013-03-24 01:20:00,51.6,16.5,30.01,NW,315,2.3,4.4,24,0.00,,,0.00,tws,2013-03-24 08:20:00,
2013-03-24 01:30:00,51.2,16.1,30.01,NW,315,4.1,5.1,24,0.00,,,0.00,tws,2013-03-24 08:30:00,
2013-03-24 01:40:00,51.0,16.7,30.01,NW,315,2.6,3.8,25,0.00,,,0.00,tws,2013-03-24 08:40:00,
2013-03-24 01:50:00,50.6,16.8,30.00,NW,315,3.3,4.0,25,0.00,,,0.00,tws,2013-03-24 08:50:00,
2013-03-24 02:00:00,50.3,17.0,30.01,NW,315,3.6,4.1,26,0.00,,,0.00,tws,2013-03-24 09:00:00,
2013-03-24 02:10:00,50.1,16.8,30.00,NW,315,3.4,3.6,26,0.00,,,0.00,tws,2013-03-24 09:10:00,
2013-03-24 02:20:00,50.0,16.1,30.00,NW,315,3.6,3.9,25,0.00,,,0.00,tws,2013-03-24 09:20:00,
2013-03-24 02:30:00,50.1,15.6,30.00,NW,315,4.1,4.7,25,0.00,,,0.00,tws,2013-03-24 09:30:00,
2013-03-24 02:40:00,50.3,15.3,29.99,NNW,337,4.0,5.2,24,0.00,,,0.00,tws,2013-03-24 09:40:00,
2013-03-24 02:50:00,50.5,15.2,29.99,NW,315,3.7,4.5,24,0.00,,,0.00,tws,2013-03-24 09:50:00,
2013-03-24 03:00:00,50.5,15.2,29.99,NW,315,3.9,4.5,24,0.00,,,0.00,tws,2013-03-24 10:00:00,
2013-03-24 03:10:00,50.6,14.8,29.98,NW,315,4.2,4.8,23,0.00,,,0.00,tws,2013-03-24 10:10:00,
2013-03-24 03:20:00,50.8,14.2,29.98,WNW,292,3.4,4.1,22,0.00,,,0.00,tws,2013-03-24 10:20:00,
2013-03-24 03:30:00,51.1,14.0,29.98,WNW,292,3.1,4.0,22,0.00,,,0.00,tws,2013-03-24 10:30:00,
2013-03-24 03:40:00,51.2,13.6,29.98,NW,315,4.1,5.1,21,0.00,,,0.00,tws,2013-03-24 10:40:00,
2013-03-24 03:50:00,51.2,13.5,29.98,West,270,3.4,4.1,21,0.00,,,0.00,tws,2013-03-24 10:50:00,
2013-03-24 04:00:00,51.1,14.0,29.99,East,90,2.0,3.7,22,0.00,,,0.00,tws,2013-03-24 11:00:00,
2013-03-24 04:10:00,50.1,15.5,29.99,North,0,2.4,3.3,24,0.00,,,0.00,tws,2013-03-24 11:10:00,
2013-03-24 04:20:00,48.8,15.7,29.98,NW,315,0.4,2.1,26,0.00,,,0.00,tws,2013-03-24 11:20:00,
2013-03-24 04:30:00,47.6,15.3,29.98,NW,315,1.2,3.2,27,0.00,,,0.00,tws,2013-03-24 11:30:00,
2013-03-24 04:40:00,46.6,14.9,29.98,NW,315,3.7,4.5,27,0.00,,,0.00,tws,2013-03-24 11:40:00,
2013-03-24 04:50:00,46.2,15.0,29.98,NW,315,2.7,3.5,28,0.00,,,0.00,tws,2013-03-24 11:50:00,
2013-03-24 05:00:00,46.0,14.9,29.98,NW,315,2.2,2.6,28,0.00,,,0.00,tws,2013-03-24 12:00:00,
2013-03-24 05:10:00,45.7,15.1,29.98,WNW,292,3.3,4.6,28,0.00,,,0.00,tws,2013-03-24 12:10:00,
2013-03-24 05:20:00,45.6,15.3,29.98,NNW,337,3.5,4.7,29,0.00,,,0.00,tws,2013-03-24 12:20:00,
2013-03-24 05:30:00,45.7,15.8,29.99,NW,315,1.2,3.1,29,0.00,,,0.00,tws,2013-03-24 12:30:00,
2013-03-24 05:40:00,45.7,16.2,29.98,NNW,337,1.5,3.2,30,0.00,,,0.00,tws,2013-03-24 12:40:00,
2013-03-24 05:50:00,45.4,16.2,29.99,NW,315,1.3,2.6,30,0.00,,,0.00,tws,2013-03-24 12:50:00,
2013-03-24 06:00:00,45.1,16.0,29.99,NW,315,3.3,5.3,30,0.00,,,0.00,tws,2013-03-24 13:00:00,
2013-03-24 06:10:00,44.8,15.3,29.99,NW,315,4.1,5.4,30,0.00,,,0.00,tws,2013-03-24 13:10:00,
2013-03-24 06:20:00,44.9,15.0,29.99,NW,315,2.1,3.6,29,0.00,,,0.00,tws,2013-03-24 13:20:00,
2013-03-24 06:30:00,45.0,15.5,29.99,NW,315,1.2,2.6,30,0.00,,,0.00,tws,2013-03-24 13:30:00,
2013-03-24 06:40:00,45.0,16.2,30.00,NW,315,1.5,2.8,31,0.00,,,0.00,tws,2013-03-24 13:40:00,
2013-03-24 06:50:00,45.2,16.9,29.99,NW,315,0.0,0.0,31,0.00,,,0.00,tws,2013-03-24 13:50:00,
2013-03-24 07:00:00,45.2,17.5,30.00,North,0,0.0,0.0,32,0.00,,,0.00,tws,2013-03-24 14:00:00,
2013-03-24 07:20:00,45.4,19.0,30.00,North,0,0.0,0.0,34,0.00,,,0.00,tws,2013-03-24 14:20:00,
2013-03-24 07:30:00,45.8,19.9,30.00,East,90,0.0,0.0,35,0.00,,,0.00,tws,2013-03-24 14:30:00,
2013-03-24 07:40:00,46.5,20.3,30.00,NE,45,0.7,2.4,35,0.00,,,0.00,tws,2013-03-24 14:40:00,
2013-03-24 07:50:00,47.7,20.7,30.01,East,90,0.4,1.7,33,0.00,,,0.00,tws,2013-03-24 14:50:00,
2013-03-24 08:00:00,48.6,21.5,30.00,SE,135,0.0,0.0,33,0.00,,,0.00,tws,2013-03-24 15:00:00,
2013-03-24 08:10:00,49.6,22.1,30.01,East,90,1.5,2.2,33,0.00,,,0.00,tws,2013-03-24 15:10:00,
2013-03-24 08:20:00,51.0,21.4,30.01,East,90,1.6,2.2,30,0.00,,,0.00,tws,2013-03-24 15:20:00,
2013-03-24 08:30:00,52.9,22.1,30.01,North,0,1.9,2.6,29,0.00,,,0.00,tws,2013-03-24 15:30:00,
2013-03-24 08:40:00,54.9,23.1,30.02,ENE,67,2.6,3.8,28,0.00,,,0.00,tws,2013-03-24 15:40:00,
2013-03-24 08:50:00,56.8,23.4,30.02,ENE,67,3.2,3.7,27,0.00,,,0.00,tws,2013-03-24 15:50:00,
2013-03-24 09:00:00,58.6,24.1,30.02,SE,135,2.3,3.0,26,0.00,,,0.00,tws,2013-03-24 16:00:00,
2013-03-24 09:10:00,60.7,24.7,30.02,NE,45,1.9,3.3,24,0.00,,,0.00,tws,2013-03-24 16:10:00,
2013-03-24 09:20:00,64.1,25.6,30.01,NE,45,2.8,3.9,22,0.00,,,0.00,tws,2013-03-24 16:20:00,
2013-03-24 09:30:00,67.2,25.7,30.02,NE,45,3.3,5.4,20,0.00,,,0.00,tws,2013-03-24 16:30:00,
2013-03-24 09:40:00,68.9,25.7,30.02,SSE,157,3.7,4.6,19,0.00,,,0.00,tws,2013-03-24 16:40:00,
2013-03-24 09:50:00,70.1,25.7,30.02,ENE,67,4.3,5.6,18,0.00,,,0.00,tws,2013-03-24 16:50:00,
2013-03-24 10:00:00,71.0,25.4,30.01,NE,45,4.0,4.9,17,0.00,,,0.00,tws,2013-03-24 17:00:00,
2013-03-24 10:10:00,71.9,24.7,30.02,SE,135,4.7,5.7,16,0.00,,,0.00,tws,2013-03-24 17:10:00,
2013-03-24 10:20:00,72.7,25.5,30.01,NE,45,4.3,5.7,16,0.00,,,0.00,tws,2013-03-24 17:20:00,
2013-03-24 10:30:00,72.4,23.8,30.01,NE,45,3.8,5.2,15,0.00,,,0.00,tws,2013-03-24 17:30:00,
2013-03-24 10:40:00,71.8,23.2,30.01,East,90,4.1,5.3,15,0.00,,,0.00,tws,2013-03-24 17:40:00,
2013-03-24 10:50:00,71.7,23.1,30.01,East,90,3.7,6.1,15,0.00,,,0.00,tws,2013-03-24 17:50:00,
2013-03-24 11:00:00,71.6,21.6,30.00,East,90,3.9,4.8,14,0.00,,,0.00,tws,2013-03-24 18:00:00,
2013-03-24 11:10:00,71.4,21.8,30.01,South,180,4.4,6.1,15,0.00,,,0.00,tws,2013-03-24 18:10:00,
2013-03-24 11:20:00,71.2,20.2,30.00,SW,225,3.4,5.4,14,0.00,,,0.00,tws,2013-03-24 18:20:00,
2013-03-24 11:30:00,71.5,21.0,30.00,North,0,2.6,3.5,14,0.00,,,0.00,tws,2013-03-24 18:30:00,
2013-03-24 11:40:00,72.5,22.2,29.99,SSW,202,2.9,4.5,14,0.00,,,0.00,tws,2013-03-24 18:40:00,
2013-03-24 11:50:00,73.3,20.8,29.99,SW,225,3.8,6.8,13,0.00,,,0.00,tws,2013-03-24 18:50:00,
2013-03-24 12:00:00,73.8,20.7,29.99,South,180,3.4,5.2,13,0.00,,,0.00,tws,2013-03-24 19:00:00,
2013-03-24 12:10:00,74.5,20.6,29.98,NE,45,2.8,4.6,12,0.00,,,0.00,tws,2013-03-24 19:10:00,
2013-03-24 12:20:00,74.3,20.5,29.98,East,90,3.6,7.3,12,0.00,,,0.00,tws,2013-03-24 19:20:00,
2013-03-24 12:30:00,73.9,22.0,29.97,SE,135,3.6,7.3,14,0.00,,,0.00,tws,2013-03-24 19:30:00,
2013-03-24 12:40:00,73.8,22.2,29.96,South,180,3.9,7.4,14,0.00,,,0.00,tws,2013-03-24 19:40:00,
2013-03-24 12:50:00,73.8,20.9,29.96,ESE,112,5.2,6.4,13,0.00,,,0.00,tws,2013-03-24 19:50:00,
2013-03-24 13:00:00,73.8,20.1,29.96,South,180,4.9,7.6,12,0.00,,,0.00,tws,2013-03-24 20:00:00,
2013-03-24 13:10:00,73.9,20.4,29.95,South,180,4.2,6.3,13,0.00,,,0.00,tws,2013-03-24 20:10:00,
2013-03-24 13:20:00,73.9,18.9,29.95,South,180,6.8,10.3,12,0.00,,,0.00,tws,2013-03-24 20:20:00,
2013-03-24 13:30:00,73.8,19.4,29.94,East,90,4.8,7.7,12,0.00,,,0.00,tws,2013-03-24 20:30:00,
2013-03-24 13:40:00,73.7,19.5,29.93,NE,45,3.3,5.0,12,0.00,,,0.00,tws,2013-03-24 20:40:00,
2013-03-24 13:50:00,74.1,20.6,29.93,SSE,157,6.3,10.0,13,0.00,,,0.00,tws,2013-03-24 20:50:00,
2013-03-24 14:00:00,74.4,20.2,29.92,ESE,112,5.3,9.5,12,0.00,,,0.00,tws,2013-03-24 21:00:00,
2013-03-24 14:10:00,74.9,20.7,29.92,SSW,202,5.1,9.4,12,0.00,,,0.00,tws,2013-03-24 21:10:00,
2013-03-24 14:20:00,75.0,20.4,29.92,SW,225,5.7,8.9,12,0.00,,,0.00,tws,2013-03-24 21:20:00,
2013-03-24 14:30:00,75.0,20.4,29.91,SW,225,6.7,10.4,12,0.00,,,0.00,tws,2013-03-24 21:30:00,
2013-03-24 14:40:00,75.2,20.9,29.91,SW,225,5.5,7.3,12,0.00,,,0.00,tws,2013-03-24 21:40:00,
2013-03-24 14:50:00,75.1,20.4,29.91,South,180,5.8,10.5,12,0.00,,,0.00,tws,2013-03-24 21:50:00,
2013-03-24 15:00:00,75.4,20.8,29.91,South,180,6.4,10.8,12,0.00,,,0.00,tws,2013-03-24 22:00:00,
2013-03-24 15:10:00,75.4,20.7,29.91,East,90,7.9,10.7,12,0.00,,,0.00,tws,2013-03-24 22:10:00,
2013-03-24 15:20:00,75.1,20.3,29.90,SW,225,6.6,11.2,12,0.00,,,0.00,tws,2013-03-24 22:20:00,
2013-03-24 15:30:00,75.4,20.6,29.90,SW,225,6.5,8.8,12,0.00,,,0.00,tws,2013-03-24 22:30:00,
2013-03-24 15:40:00,75.9,21.6,29.90,WSW,247,6.9,10.5,12,0.00,,,0.00,tws,2013-03-24 22:40:00,
2013-03-24 15:50:00,76.0,20.3,29.90,SSE,157,7.2,9.7,12,0.00,,,0.00,tws,2013-03-24 22:50:00,
2013-03-24 16:00:00,75.8,20.6,29.90,South,180,7.6,10.0,12,0.00,,,0.00,tws,2013-03-24 23:00:00,
2013-03-24 16:10:00,75.7,20.3,29.90,South,180,8.8,12.0,12,0.00,,,0.00,tws,2013-03-24 23:10:00,
2013-03-24 16:20:00,75.8,20.5,29.89,SW,225,7.0,9.9,12,0.00,,,0.00,tws,2013-03-24 23:20:00,
2013-03-24 16:30:00,75.4,19.8,29.89,South,180,7.5,10.7,12,0.00,,,0.00,tws,2013-03-24 23:30:00,
2013-03-24 16:40:00,74.5,19.0,29.90,SSW,202,9.5,11.1,12,0.00,,,0.00,tws,2013-03-24 23:40:00,
2013-03-24 16:50:00,73.6,18.2,29.90,WSW,247,8.5,10.9,12,0.00,,,0.00,tws,2013-03-24 23:50:00,
2013-03-24 17:00:00,72.7,18.1,29.90,South,180,8.5,10.4,12,0.00,,,0.00,tws,2013-03-25 00:00:00,
2013-03-24 17:10:00,71.9,17.5,29.90,SSW,202,9.1,12.0,12,0.00,,,0.00,tws,2013-03-25 00:10:00,
2013-03-24 17:20:00,71.3,17.4,29.91,SW,225,8.4,10.7,12,0.00,,,0.00,tws,2013-03-25 00:20:00,
2013-03-24 17:30:00,70.7,17.4,29.90,SW,225,8.5,11.3,12,0.00,,,0.00,tws,2013-03-25 00:30:00,
2013-03-24 17:50:00,69.8,17.1,29.91,South,180,8.5,10.3,13,0.00,,,0.00,tws,2013-03-25 00:50:00,
2013-03-24 18:00:00,69.5,16.7,29.90,SW,225,7.8,8.7,12,0.00,,,0.00,tws,2013-03-25 01:00:00,
2013-03-24 18:10:00,69.2,16.7,29.91,SSW,202,7.1,10.0,13,0.00,,,0.00,tws,2013-03-25 01:10:00,
2013-03-24 18:20:00,68.8,16.5,29.91,SW,225,6.8,8.3,13,0.00,,,0.00,tws,2013-03-25 01:20:00,
2013-03-24 18:30:00,68.3,16.5,29.91,SW,225,6.2,7.9,13,0.00,,,0.00,tws,2013-03-25 01:30:00,
2013-03-24 18:40:00,67.8,16.4,29.91,SSW,202,4.2,5.5,13,0.00,,,0.00,tws,2013-03-25 01:40:00,
2013-03-24 18:50:00,67.3,16.5,29.91,South,180,3.9,5.0,13,0.00,,,0.00,tws,2013-03-25 01:50:00,
2013-03-24 19:00:00,66.7,15.9,29.92,SW,225,4.0,5.0,13,0.00,,,0.00,tws,2013-03-25 02:00:00,
2013-03-24 19:10:00,66.0,16.1,29.91,NNW,337,1.8,3.0,14,0.00,,,0.00,tws,2013-03-25 02:10:00,
2013-03-24 19:20:00,65.4,17.8,29.92,West,270,1.1,1.7,15,0.00,,,0.00,tws,2013-03-25 02:20:00,
2013-03-24 19:30:00,64.7,19.3,29.91,NW,315,1.0,1.8,17,0.00,,,0.00,tws,2013-03-25 02:30:00,
2013-03-24 19:40:00,63.7,19.6,29.92,WNW,292,1.8,2.8,18,0.00,,,0.00,tws,2013-03-25 02:40:00,
2013-03-24 19:50:00,63.0,19.4,29.92,NNW,337,3.2,3.7,18,0.00,,,0.00,tws,2013-03-25 02:50:00,
2013-03-24 20:00:00,62.3,19.6,29.93,NNW,337,2.9,3.4,18,0.00,,,0.00,tws,2013-03-25 03:00:00,
2013-03-24 20:10:00,61.7,19.8,29.93,NW,315,3.3,4.6,19,0.00,,,0.00,tws,2013-03-25 03:10:00,
2013-03-24 20:20:00,61.2,19.5,29.94,NW,315,3.6,4.7,19,0.00,,,0.00,tws,2013-03-25 03:20:00,
2013-03-24 20:30:00,60.8,18.8,29.93,NW,315,4.5,5.7,19,0.00,,,0.00,tws,2013-03-25 03:30:00,
2013-03-24 20:40:00,60.4,19.1,29.94,NW,315,4.8,5.3,19,0.00,,,0.00,tws,2013-03-25 03:40:00,
2013-03-24 20:50:00,60.3,19.0,29.94,NNW,337,4.6,5.2,19,0.00,,,0.00,tws,2013-03-25 03:50:00,
2013-03-24 21:00:00,60.2,19.0,29.94,West,270,4.5,5.3,19,0.00,,,0.00,tws,2013-03-25 04:00:00,
2013-03-24 21:10:00,59.9,18.2,29.94,WSW,247,4.5,5.0,19,0.00,,,0.00,tws,2013-03-25 04:10:00,
2013-03-24 21:20:00,59.5,18.4,29.95,NW,315,4.3,5.4,19,0.00,,,0.00,tws,2013-03-25 04:20:00,
2013-03-24 21:30:00,59.2,18.5,29.95,NW,315,5.3,6.1,20,0.00,,,0.00,tws,2013-03-25 04:30:00,
2013-03-24 21:40:00,59.0,18.1,29.95,NW,315,4.4,5.2,20,0.00,,,0.00,tws,2013-03-25 04:40:00,
2013-03-24 21:50:00,58.9,17.8,29.95,NW,315,3.5,4.5,19,0.00,,,0.00,tws,2013-03-25 04:50:00,
2013-03-24 22:00:00,58.7,17.9,29.95,NW,315,3.9,4.8,20,0.00,,,0.00,tws,2013-03-25 05:00:00,
2013-03-24 22:10:00,58.4,18.4,29.95,NW,315,4.2,5.1,20,0.00,,,0.00,tws,2013-03-25 05:10:00,
2013-03-24 22:20:00,58.1,17.8,29.95,NW,315,4.0,5.3,20,0.00,,,0.00,tws,2013-03-25 05:20:00,
2013-03-24 22:30:00,57.9,17.9,29.95,NW,315,4.3,5.5,20,0.00,,,0.00,tws,2013-03-25 05:30:00,
2013-03-24 22:40:00,57.8,18.5,29.96,NW,315,3.9,4.7,21,0.00,,,0.00,tws,2013-03-25 05:40:00,
2013-03-24 22:50:00,57.6,18.4,29.95,NNW,337,4.6,5.7,21,0.00,,,0.00,tws,2013-03-25 05:50:00,
2013-03-24 23:00:00,57.4,18.3,29.95,NW,315,4.5,5.1,21,0.00,,,0.00,tws,2013-03-25 06:00:00,
2013-03-24 23:10:00,57.4,18.4,29.96,NW,315,3.9,5.4,21,0.00,,,0.00,tws,2013-03-25 06:10:00,
2013-03-24 23:20:00,57.3,18.2,29.95,WNW,292,4.6,6.3,21,0.00,,,0.00,tws,2013-03-25 06:20:00,
2013-03-24 23:30:00,57.2,18.4,29.95,NW,315,4.2,5.1,21,0.00,,,0.00,tws,2013-03-25 06:30:00,
2013-03-24 23:40:00,57.2,18.0,29.95,WNW,292,4.3,5.6,21,0.00,,,0.00,tws,2013-03-25 06:40:00,
2013-03-24 23:50:00,57.2,18.0,29.95,NW,315,3.9,5.8,21,0.00,,,0.00,tws,2013-03-25 06:50:00,